sensor_id;sensor_type;location;lat;lon;timestamp;pressure;altitude;pressure_sealevel;temperature;humidity
13954;BME280;7049;49.444;8.522;2022-08-21T00:00:37;76763.63;;;-3.47;46.16
13954;BME280;7049;49.444;8.522;2022-08-21T00:05:43;76778.28;;;-3.47;46.73
13954;BME280;7049;49.444;8.522;2022-08-21T00:10:47;76782.47;;;-3.47;47.34
13954;BME280;7049;49.444;8.522;2022-08-21T00:15:50;76795.00;;;-3.47;47.66
13954;BME280;7049;49.444;8.522;2022-08-21T00:20:52;76803.38;;;-3.47;47.97
13954;BME280;7049;49.444;8.522;2022-08-21T00:25:54;76807.56;;;-3.47;48.27
13954;BME280;7049;49.444;8.522;2022-08-21T00:30:57;76807.56;;;-3.47;48.32
13954;BME280;7049;49.444;8.522;2022-08-21T00:35:58;76826.38;;;-3.47;48.72
13954;BME280;7049;49.444;8.522;2022-08-21T00:41:03;76834.75;;;-3.47;49.10
13954;BME280;7049;49.444;8.522;2022-08-21T00:46:07;76843.13;;;-3.47;49.65
13954;BME280;7049;49.444;8.522;2022-08-21T00:51:11;76851.47;;;-3.47;50.09
13954;BME280;7049;49.444;8.522;2022-08-21T00:56:14;76868.22;;;-3.47;50.69
13954;BME280;7049;49.444;8.522;2022-08-21T01:01:17;76876.59;;;-3.47;51.16
13954;BME280;7049;49.444;8.522;2022-08-21T01:06:19;76878.69;;;-3.47;51.17
13954;BME280;7049;49.444;8.522;2022-08-21T01:11:20;76893.31;;;-3.47;51.05
13954;BME280;7049;49.444;8.522;2022-08-21T01:16:23;76907.97;;;-3.47;50.79
13954;BME280;7049;49.444;8.522;2022-08-21T01:21:27;76914.25;;;-3.47;51.30
13954;BME280;7049;49.444;8.522;2022-08-21T01:26:31;76924.69;;;-3.47;51.23
13954;BME280;7049;49.444;8.522;2022-08-21T01:31:34;76930.97;;;-3.47;51.41
13954;BME280;7049;49.444;8.522;2022-08-21T01:36:38;76939.34;;;-3.47;51.26
13954;BME280;7049;49.444;8.522;2022-08-21T01:41:40;76949.81;;;-3.47;51.75
13954;BME280;7049;49.444;8.522;2022-08-21T01:46:41;76956.09;;;-3.47;52.16
13954;BME280;7049;49.444;8.522;2022-08-21T01:51:44;76970.72;;;-3.47;52.37
13954;BME280;7049;49.444;8.522;2022-08-21T01:56:48;76974.91;;;-3.47;52.63
13954;BME280;7049;49.444;8.522;2022-08-21T02:01:51;76977.00;;;-3.47;52.86
13954;BME280;7049;49.444;8.522;2022-08-21T02:06:55;76985.38;;;-3.47;52.99
13954;BME280;7049;49.444;8.522;2022-08-21T02:11:57;76995.84;;;-3.47;53.27
13954;BME280;7049;49.444;8.522;2022-08-21T02:16:59;76997.91;;;-3.47;53.80
13954;BME280;7049;49.444;8.522;2022-08-21T02:22:02;76997.91;;;-3.47;54.27
13954;BME280;7049;49.444;8.522;2022-08-21T02:27:04;77014.66;;;-3.47;54.24
13954;BME280;7049;49.444;8.522;2022-08-21T02:32:06;77023.03;;;-3.47;54.13
13954;BME280;7049;49.444;8.522;2022-08-21T02:37:09;77029.31;;;-3.47;54.25
13954;BME280;7049;49.444;8.522;2022-08-21T02:42:10;77037.66;;;-3.47;54.58
13954;BME280;7049;49.444;8.522;2022-08-21T02:47:13;77039.75;;;-3.47;54.60
13954;BME280;7049;49.444;8.522;2022-08-21T02:52:16;77048.13;;;-3.47;54.64
13954;BME280;7049;49.444;8.522;2022-08-21T02:57:17;77058.59;;;-3.47;54.76
13954;BME280;7049;49.444;8.522;2022-08-21T03:02:19;77064.88;;;-3.47;55.24
13954;BME280;7049;49.444;8.522;2022-08-21T03:07:22;77075.31;;;-3.47;55.56
13954;BME280;7049;49.444;8.522;2022-08-21T03:12:24;77077.41;;;-3.47;55.82
13954;BME280;7049;49.444;8.522;2022-08-21T03:17:26;77079.50;;;-3.47;55.59
13954;BME280;7049;49.444;8.522;2022-08-21T03:22:28;77092.06;;;-3.47;55.59
13954;BME280;7049;49.444;8.522;2022-08-21T03:27:30;77098.34;;;-3.47;56.25
13954;BME280;7049;49.444;8.522;2022-08-21T03:32:32;77108.78;;;-3.47;56.71
13954;BME280;7049;49.444;8.522;2022-08-21T03:37:35;77117.16;;;-3.47;57.08
13954;BME280;7049;49.444;8.522;2022-08-21T03:42:36;77127.63;;;-3.47;57.26
13954;BME280;7049;49.444;8.522;2022-08-21T03:47:38;77131.81;;;-3.47;57.35
13954;BME280;7049;49.444;8.522;2022-08-21T03:52:41;77136.00;;;-3.47;57.39
13954;BME280;7049;49.444;8.522;2022-08-21T03:57:43;77148.53;;;-3.47;57.60
13954;BME280;7049;49.444;8.522;2022-08-21T04:02:45;77161.09;;;-3.47;57.72
13954;BME280;7049;49.444;8.522;2022-08-21T04:07:47;77171.56;;;-3.47;57.70
13954;BME280;7049;49.444;8.522;2022-08-21T04:12:49;77182.03;;;-3.47;57.70
13954;BME280;7049;49.444;8.522;2022-08-21T04:17:51;77186.19;;;-3.47;58.03
13954;BME280;7049;49.444;8.522;2022-08-21T04:22:54;77202.94;;;-3.47;58.22
13954;BME280;7049;49.444;8.522;2022-08-21T04:27:56;77211.31;;;-3.47;58.31
13954;BME280;7049;49.444;8.522;2022-08-21T04:32:58;77211.31;;;-3.47;58.43
13954;BME280;7049;49.444;8.522;2022-08-21T04:38:01;77223.88;;;-3.47;59.12
13954;BME280;7049;49.444;8.522;2022-08-21T04:43:06;77238.50;;;-3.47;59.16
13954;BME280;7049;49.444;8.522;2022-08-21T04:48:10;77236.41;;;-3.47;59.53
13954;BME280;7049;49.444;8.522;2022-08-21T04:53:16;77248.97;;;-3.47;59.59
13954;BME280;7049;49.444;8.522;2022-08-21T04:58:20;77248.97;;;-3.47;59.64
13954;BME280;7049;49.444;8.522;2022-08-21T05:03:23;77253.16;;;-3.47;60.19
13954;BME280;7049;49.444;8.522;2022-08-21T05:08:27;77251.06;;;-3.47;60.05
13954;BME280;7049;49.444;8.522;2022-08-21T05:13:29;77255.25;;;-3.47;60.10
13954;BME280;7049;49.444;8.522;2022-08-21T05:18:31;77248.97;;;-3.47;60.39
13954;BME280;7049;49.444;8.522;2022-08-21T05:23:35;77246.88;;;-3.47;59.84
13954;BME280;7049;49.444;8.522;2022-08-21T05:28:36;77248.97;;;-3.47;59.66
13954;BME280;7049;49.444;8.522;2022-08-21T05:33:38;77236.41;;;-3.47;59.18
13954;BME280;7049;49.444;8.522;2022-08-21T05:38:41;77225.94;;;-3.47;59.27
13954;BME280;7049;49.444;8.522;2022-08-21T05:43:42;77219.69;;;-3.47;59.58
13954;BME280;7049;49.444;8.522;2022-08-21T05:48:44;77213.41;;;-3.47;59.93
13954;BME280;7049;49.444;8.522;2022-08-21T05:53:46;77200.84;;;-3.47;60.71
13954;BME280;7049;49.444;8.522;2022-08-21T05:58:48;77192.47;;;-3.47;60.68
13954;BME280;7049;49.444;8.522;2022-08-21T06:03:49;77173.66;;;-3.47;60.38
13954;BME280;7049;49.444;8.522;2022-08-21T06:08:52;77165.28;;;-3.47;59.84
13954;BME280;7049;49.444;8.522;2022-08-21T06:13:53;77146.44;;;-3.47;58.83
13954;BME280;7049;49.444;8.522;2022-08-21T06:18:55;77131.81;;;-3.47;59.20
13954;BME280;7049;49.444;8.522;2022-08-21T06:23:58;77110.88;;;-3.47;58.14
13954;BME280;7049;49.444;8.522;2022-08-21T06:28:59;77102.53;;;-3.47;57.97
13954;BME280;7049;49.444;8.522;2022-08-21T06:34:00;77085.78;;;-3.47;57.68
13954;BME280;7049;49.444;8.522;2022-08-21T06:39:03;77056.50;;;-3.47;57.31
13954;BME280;7049;49.444;8.522;2022-08-21T06:44:05;77033.47;;;-3.47;57.26
13954;BME280;7049;49.444;8.522;2022-08-21T06:49:06;76997.91;;;-3.47;56.75
13954;BME280;7049;49.444;8.522;2022-08-21T06:54:09;76972.81;;;-3.47;55.66
13954;BME280;7049;49.444;8.522;2022-08-21T06:59:11;76939.34;;;-3.47;54.40
13954;BME280;7049;49.444;8.522;2022-08-21T07:04:12;76912.16;;;-3.47;52.96
13954;BME280;7049;49.444;8.522;2022-08-21T07:09:15;76889.13;;;-3.47;51.50
13954;BME280;7049;49.444;8.522;2022-08-21T07:14:16;76845.22;;;-3.47;50.92
13954;BME280;7049;49.444;8.522;2022-08-21T07:19:18;76805.47;;;-3.47;49.96
13954;BME280;7049;49.444;8.522;2022-08-21T07:24:21;76765.72;;;-3.47;48.11
13954;BME280;7049;49.444;8.522;2022-08-21T07:29:23;76732.25;;;-3.47;46.69
13954;BME280;7049;49.444;8.522;2022-08-21T07:34:24;76694.59;;;-3.47;46.61
13954;BME280;7049;49.444;8.522;2022-08-21T07:39:27;76646.50;;;-3.47;46.31
13954;BME280;7049;49.444;8.522;2022-08-21T07:44:28;76604.66;;;-3.47;45.81
13954;BME280;7049;49.444;8.522;2022-08-21T07:49:30;76567.00;;;-3.47;45.58
13954;BME280;7049;49.444;8.522;2022-08-21T07:54:32;76510.53;;;-3.47;45.34
13954;BME280;7049;49.444;8.522;2022-08-21T07:59:34;76466.59;;;-3.47;43.64
13954;BME280;7049;49.444;8.522;2022-08-21T08:04:36;76433.13;;;-3.47;40.42
13954;BME280;7049;49.444;8.522;2022-08-21T08:09:39;76395.47;;;-3.47;39.52
13954;BME280;7049;49.444;8.522;2022-08-21T08:14:40;76349.47;;;-3.47;39.30
13954;BME280;7049;49.444;8.522;2022-08-21T08:19:42;76303.47;;;-3.47;39.11
13954;BME280;7049;49.444;8.522;2022-08-21T08:24:45;76274.19;;;-3.47;37.71
13954;BME280;7049;49.444;8.522;2022-08-21T08:29:46;76244.91;;;-3.47;38.23
13954;BME280;7049;49.444;8.522;2022-08-21T08:34:49;76184.25;;;-3.47;38.16
13954;BME280;7049;49.444;8.522;2022-08-21T08:39:53;76163.31;;;-3.47;36.65
13954;BME280;7049;49.444;8.522;2022-08-21T08:44:57;76123.59;;;-3.47;36.77
13954;BME280;7049;49.444;8.522;2022-08-21T08:50:04;76094.31;;;-3.47;35.70
13954;BME280;7049;49.444;8.522;2022-08-21T08:55:09;76052.47;;;-3.47;35.45
13954;BME280;7049;49.444;8.522;2022-08-21T09:00:16;76021.09;;;-3.47;35.33
13954;BME280;7049;49.444;8.522;2022-08-21T09:05:21;75989.75;;;-3.47;34.59
13954;BME280;7049;49.444;8.522;2022-08-21T09:10:30;75937.47;;;-3.47;34.80
13954;BME280;7049;49.444;8.522;2022-08-21T09:15:46;75899.81;;;-3.47;33.66
13954;BME280;7049;49.444;8.522;2022-08-21T09:21:02;75845.44;;;-3.47;33.91
13954;BME280;7049;49.444;8.522;2022-08-21T09:26:16;75814.06;;;-3.47;32.68
13954;BME280;7049;49.444;8.522;2022-08-21T09:31:22;75784.78;;;-3.47;32.79
13954;BME280;7049;49.444;8.522;2022-08-21T09:36:25;75772.25;;;-3.47;32.58
13954;BME280;7049;49.444;8.522;2022-08-21T09:41:34;75751.34;;;-3.47;32.13
13954;BME280;7049;49.444;8.522;2022-08-21T09:46:52;75745.06;;;-3.47;31.07
13954;BME280;7049;49.444;8.522;2022-08-21T09:52:16;75699.06;;;-3.47;31.50
13954;BME280;7049;49.444;8.522;2022-08-21T09:57:23;75671.88;;;-3.47;30.16
13954;BME280;7049;49.444;8.522;2022-08-21T10:02:46;75640.50;;;-3.47;30.26
13954;BME280;7049;49.444;8.522;2022-08-21T10:07:48;75640.50;;;-3.47;30.35
13954;BME280;7049;49.444;8.522;2022-08-21T10:12:56;75600.78;;;-3.47;29.42
13954;BME280;7049;49.444;8.522;2022-08-21T10:18:04;75561.03;;;-3.47;29.37
13954;BME280;7049;49.444;8.522;2022-08-21T10:23:21;75523.41;;;-3.47;28.85
13954;BME280;7049;49.444;8.522;2022-08-21T10:28:32;75492.03;;;-3.47;28.47
13954;BME280;7049;49.444;8.522;2022-08-21T10:33:43;75460.66;;;-3.47;27.67
13954;BME280;7049;49.444;8.522;2022-08-21T10:38:58;75469.03;;;-3.47;27.72
13954;BME280;7049;49.444;8.522;2022-08-21T10:44:12;75429.31;;;-3.47;28.37
13954;BME280;7049;49.444;8.522;2022-08-21T10:49:24;75406.31;;;-3.47;27.83
13954;BME280;7049;49.444;8.522;2022-08-21T10:54:33;75374.94;;;-3.47;28.10
13954;BME280;7049;49.444;8.522;2022-08-21T10:59:43;75339.38;;;-3.47;28.30
13954;BME280;7049;49.444;8.522;2022-08-21T11:04:53;75320.56;;;-3.47;28.06
13954;BME280;7049;49.444;8.522;2022-08-21T11:10:08;75308.03;;;-3.47;27.38
13954;BME280;7049;49.444;8.522;2022-08-21T11:15:24;75305.94;;;-3.47;27.48
13954;BME280;7049;49.444;8.522;2022-08-21T11:20:30;75278.75;;;-3.47;27.58
13954;BME280;7049;49.444;8.522;2022-08-21T11:25:38;75282.94;;;-3.47;26.40
13954;BME280;7049;49.444;8.522;2022-08-21T11:30:57;75285.03;;;-3.47;26.48
13954;BME280;7049;49.444;8.522;2022-08-21T11:36:09;75282.94;;;-3.47;26.83
13954;BME280;7049;49.444;8.522;2022-08-21T11:41:25;75259.94;;;-3.47;26.64
13954;BME280;7049;49.444;8.522;2022-08-21T11:46:39;75234.84;;;-3.47;26.42
13954;BME280;7049;49.444;8.522;2022-08-21T11:51:48;75216.03;;;-3.47;26.43
13954;BME280;7049;49.444;8.522;2022-08-21T11:56:55;75216.03;;;-3.47;25.67
13954;BME280;7049;49.444;8.522;2022-08-21T12:02:01;75251.56;;;-3.47;25.21
13954;BME280;7049;49.444;8.522;2022-08-21T12:07:11;75224.38;;;-3.47;26.40
13954;BME280;7049;49.444;8.522;2022-08-21T12:12:23;75230.66;;;-3.47;24.99
13954;BME280;7049;49.444;8.522;2022-08-21T12:17:40;75211.84;;;-3.47;25.09
13954;BME280;7049;49.444;8.522;2022-08-21T12:22:49;75195.13;;;-3.47;25.35
13954;BME280;7049;49.444;8.522;2022-08-21T12:28:01;75186.75;;;-3.47;26.12
13954;BME280;7049;49.444;8.522;2022-08-21T12:33:17;75176.28;;;-3.47;26.41
13954;BME280;7049;49.444;8.522;2022-08-21T12:38:22;75163.75;;;-3.47;25.67
13954;BME280;7049;49.444;8.522;2022-08-21T12:43:28;75153.31;;;-3.47;25.80
13954;BME280;7049;49.444;8.522;2022-08-21T12:48:35;75190.94;;;-3.47;24.77
13954;BME280;7049;49.444;8.522;2022-08-21T12:53:43;75199.28;;;-3.47;24.21
13954;BME280;7049;49.444;8.522;2022-08-21T12:58:49;75209.75;;;-3.47;24.04
13954;BME280;7049;49.444;8.522;2022-08-21T13:03:53;75211.84;;;-3.47;24.56
13954;BME280;7049;49.444;8.522;2022-08-21T13:08:57;75211.84;;;-3.47;24.69
13954;BME280;7049;49.444;8.522;2022-08-21T13:14:01;75199.28;;;-3.47;25.35
13954;BME280;7049;49.444;8.522;2022-08-21T13:19:06;75184.66;;;-3.47;25.28
13954;BME280;7049;49.444;8.522;2022-08-21T13:24:13;75186.75;;;-3.47;25.58
13954;BME280;7049;49.444;8.522;2022-08-21T13:29:19;75180.47;;;-3.47;25.47
13954;BME280;7049;49.444;8.522;2022-08-21T13:34:25;75170.03;;;-3.47;25.41
13954;BME280;7049;49.444;8.522;2022-08-21T13:39:28;75147.03;;;-3.47;25.94
13954;BME280;7049;49.444;8.522;2022-08-21T13:44:34;75132.38;;;-3.47;24.64
13954;BME280;7049;49.444;8.522;2022-08-21T13:49:39;75140.75;;;-3.47;24.44
13954;BME280;7049;49.444;8.522;2022-08-21T13:54:42;75149.13;;;-3.47;24.68
13954;BME280;7049;49.444;8.522;2022-08-21T13:59:45;75161.66;;;-3.47;24.04
13954;BME280;7049;49.444;8.522;2022-08-21T14:04:52;75128.22;;;-3.47;24.96
13954;BME280;7049;49.444;8.522;2022-08-21T14:09:55;75138.66;;;-3.47;23.55
13954;BME280;7049;49.444;8.522;2022-08-21T14:15:02;75121.94;;;-3.47;24.75
13954;BME280;7049;49.444;8.522;2022-08-21T14:20:08;75092.66;;;-3.47;24.72
13954;BME280;7049;49.444;8.522;2022-08-21T14:25:13;75073.84;;;-3.47;25.14
13954;BME280;7049;49.444;8.522;2022-08-21T14:30:19;75069.66;;;-3.47;25.20
13954;BME280;7049;49.444;8.522;2022-08-21T14:35:23;75059.22;;;-3.47;25.14
13954;BME280;7049;49.444;8.522;2022-08-21T14:40:25;75034.13;;;-3.47;24.51
13954;BME280;7049;49.444;8.522;2022-08-21T14:45:28;75029.94;;;-3.47;24.29
13954;BME280;7049;49.444;8.522;2022-08-21T14:50:31;75032.03;;;-3.47;24.16
13954;BME280;7049;49.444;8.522;2022-08-21T14:55:33;75019.47;;;-3.47;24.71
13954;BME280;7049;49.444;8.522;2022-08-21T15:00:56;75011.13;;;-3.47;24.60
13954;BME280;7049;49.444;8.522;2022-08-21T15:06:00;75011.13;;;-3.47;24.53
13954;BME280;7049;49.444;8.522;2022-08-21T15:11:03;75032.03;;;-3.47;23.38
13954;BME280;7049;49.444;8.522;2022-08-21T15:16:05;75023.66;;;-3.47;23.41
13954;BME280;7049;49.444;8.522;2022-08-21T15:21:08;75009.03;;;-3.47;24.14
13954;BME280;7049;49.444;8.522;2022-08-21T15:26:09;74994.41;;;-3.47;24.06
13954;BME280;7049;49.444;8.522;2022-08-21T15:31:11;74998.56;;;-3.47;23.92
13954;BME280;7049;49.444;8.522;2022-08-21T15:36:14;74979.75;;;-3.47;23.79
13954;BME280;7049;49.444;8.522;2022-08-21T15:41:16;75015.31;;;-3.47;22.92
13954;BME280;7049;49.444;8.522;2022-08-21T15:46:19;75065.47;;;-3.47;24.34
13954;BME280;7049;49.444;8.522;2022-08-21T15:51:23;75046.66;;;-3.47;24.84
13954;BME280;7049;49.444;8.522;2022-08-21T15:56:26;75034.13;;;-3.47;24.60
13954;BME280;7049;49.444;8.522;2022-08-21T16:01:28;75019.47;;;-3.47;24.45
13954;BME280;7049;49.444;8.522;2022-08-21T16:06:31;75006.94;;;-3.47;24.35
13954;BME280;7049;49.444;8.522;2022-08-21T16:11:33;74994.41;;;-3.47;24.37
13954;BME280;7049;49.444;8.522;2022-08-21T16:16:35;74998.56;;;-3.47;23.92
13954;BME280;7049;49.444;8.522;2022-08-21T16:21:38;74971.41;;;-3.47;24.52
13954;BME280;7049;49.444;8.522;2022-08-21T16:26:40;74986.03;;;-3.47;24.78
13954;BME280;7049;49.444;8.522;2022-08-21T16:31:41;75006.94;;;-3.47;25.17
13954;BME280;7049;49.444;8.522;2022-08-21T16:36:44;75050.84;;;-3.47;25.13
13954;BME280;7049;49.444;8.522;2022-08-21T16:41:47;75092.66;;;-3.47;24.49
13954;BME280;7049;49.444;8.522;2022-08-21T16:46:49;75136.56;;;-3.47;25.25
13954;BME280;7049;49.444;8.522;2022-08-21T16:51:52;75153.31;;;-3.47;26.50
13954;BME280;7049;49.444;8.522;2022-08-21T16:56:53;75182.56;;;-3.47;27.13
13954;BME280;7049;49.444;8.522;2022-08-21T17:01:55;75224.38;;;-3.47;27.53
13954;BME280;7049;49.444;8.522;2022-08-21T17:06:58;75257.84;;;-3.47;27.71
13954;BME280;7049;49.444;8.522;2022-08-21T17:11:59;75287.13;;;-3.47;28.29
13954;BME280;7049;49.444;8.522;2022-08-21T17:17:02;75324.75;;;-3.47;29.07
13954;BME280;7049;49.444;8.522;2022-08-21T17:22:06;75358.22;;;-3.47;28.99
13954;BME280;7049;49.444;8.522;2022-08-21T17:27:08;75387.47;;;-3.47;29.05
13954;BME280;7049;49.444;8.522;2022-08-21T17:32:13;75418.84;;;-3.47;30.05
13954;BME280;7049;49.444;8.522;2022-08-21T17:37:17;75452.31;;;-3.47;29.98
13954;BME280;7049;49.444;8.522;2022-08-21T17:42:20;75485.75;;;-3.47;29.45
13954;BME280;7049;49.444;8.522;2022-08-21T17:47:22;75517.13;;;-3.47;29.54
13954;BME280;7049;49.444;8.522;2022-08-21T17:52:25;75542.22;;;-3.47;29.86
13954;BME280;7049;49.444;8.522;2022-08-21T17:57:29;75577.78;;;-3.47;30.42
13954;BME280;7049;49.444;8.522;2022-08-21T18:02:33;75611.22;;;-3.47;30.53
13954;BME280;7049;49.444;8.522;2022-08-21T18:07:36;75642.59;;;-3.47;30.72
13954;BME280;7049;49.444;8.522;2022-08-21T18:12:39;75671.88;;;-3.47;30.85
13954;BME280;7049;49.444;8.522;2022-08-21T18:17:43;75705.31;;;-3.47;30.77
13954;BME280;7049;49.444;8.522;2022-08-21T18:22:47;75730.41;;;-3.47;31.43
13954;BME280;7049;49.444;8.522;2022-08-21T18:27:49;75759.69;;;-3.47;31.71
13954;BME280;7049;49.444;8.522;2022-08-21T18:32:53;75780.59;;;-3.47;31.70
13954;BME280;7049;49.444;8.522;2022-08-21T18:37:56;75814.06;;;-3.47;31.76
13954;BME280;7049;49.444;8.522;2022-08-21T18:42:58;75845.44;;;-3.47;31.92
13954;BME280;7049;49.444;8.522;2022-08-21T18:48:00;75864.25;;;-3.47;32.10
13954;BME280;7049;49.444;8.522;2022-08-21T18:53:04;75891.44;;;-3.47;31.92
13954;BME280;7049;49.444;8.522;2022-08-21T18:58:06;75920.72;;;-3.47;32.33
13954;BME280;7049;49.444;8.522;2022-08-21T19:03:08;75945.81;;;-3.47;32.48
13954;BME280;7049;49.444;8.522;2022-08-21T19:08:12;75966.72;;;-3.47;32.96
13954;BME280;7049;49.444;8.522;2022-08-21T19:13:16;75985.56;;;-3.47;33.77
13954;BME280;7049;49.444;8.522;2022-08-21T19:18:21;76006.47;;;-3.47;33.61
13954;BME280;7049;49.444;8.522;2022-08-21T19:23:25;76021.09;;;-3.47;33.80
13954;BME280;7049;49.444;8.522;2022-08-21T19:28:29;76044.13;;;-3.47;34.31
13954;BME280;7049;49.444;8.522;2022-08-21T19:33:33;76060.84;;;-3.47;34.29
13954;BME280;7049;49.444;8.522;2022-08-21T19:38:38;76090.13;;;-3.47;34.49
13954;BME280;7049;49.444;8.522;2022-08-21T19:43:42;76102.69;;;-3.47;34.58
13954;BME280;7049;49.444;8.522;2022-08-21T19:48:44;76117.31;;;-3.47;34.40
13954;BME280;7049;49.444;8.522;2022-08-21T19:53:47;76131.97;;;-3.47;34.85
13954;BME280;7049;49.444;8.522;2022-08-21T19:58:51;76146.59;;;-3.47;35.28
13954;BME280;7049;49.444;8.522;2022-08-21T20:03:53;76159.16;;;-3.47;35.77
13954;BME280;7049;49.444;8.522;2022-08-21T20:08:56;76182.16;;;-3.47;35.66
13954;BME280;7049;49.444;8.522;2022-08-21T20:13:59;76198.88;;;-3.47;36.26
13954;BME280;7049;49.444;8.522;2022-08-21T20:19:01;76213.53;;;-3.47;36.22
13954;BME280;7049;49.444;8.522;2022-08-21T20:24:06;76228.16;;;-3.47;36.73
13954;BME280;7049;49.444;8.522;2022-08-21T20:29:08;76236.53;;;-3.47;36.58
13954;BME280;7049;49.444;8.522;2022-08-21T20:34:09;76249.06;;;-3.47;36.96
13954;BME280;7049;49.444;8.522;2022-08-21T20:39:12;76265.81;;;-3.47;37.33
13954;BME280;7049;49.444;8.522;2022-08-21T20:44:14;76272.09;;;-3.47;37.81
13954;BME280;7049;49.444;8.522;2022-08-21T20:49:20;76293.00;;;-3.47;38.46
13954;BME280;7049;49.444;8.522;2022-08-21T20:54:30;76307.63;;;-3.47;38.47
13954;BME280;7049;49.444;8.522;2022-08-21T20:59:42;76316.00;;;-3.47;39.07
13954;BME280;7049;49.444;8.522;2022-08-21T21:04:49;76332.75;;;-3.47;39.25
13954;BME280;7049;49.444;8.522;2022-08-21T21:09:53;76339.00;;;-3.47;39.95
13954;BME280;7049;49.444;8.522;2022-08-21T21:15:00;76349.47;;;-3.47;40.16
13954;BME280;7049;49.444;8.522;2022-08-21T21:20:07;76362.03;;;-3.47;40.38
13954;BME280;7049;49.444;8.522;2022-08-21T21:25:16;76374.56;;;-3.47;40.74
13954;BME280;7049;49.444;8.522;2022-08-21T21:30:21;76385.03;;;-3.47;41.45
13954;BME280;7049;49.444;8.522;2022-08-21T21:35:28;76397.56;;;-3.47;41.61
13954;BME280;7049;49.444;8.522;2022-08-21T21:40:40;76405.94;;;-3.47;41.63
13954;BME280;7049;49.444;8.522;2022-08-21T21:46:00;76422.69;;;-3.47;42.16
13954;BME280;7049;49.444;8.522;2022-08-21T21:51:11;76426.84;;;-3.47;42.31
13954;BME280;7049;49.444;8.522;2022-08-21T21:56:24;76431.03;;;-3.47;42.92
13954;BME280;7049;49.444;8.522;2022-08-21T22:01:33;76445.69;;;-3.47;44.16
13954;BME280;7049;49.444;8.522;2022-08-21T22:06:41;76454.06;;;-3.47;44.13
13954;BME280;7049;49.444;8.522;2022-08-21T22:11:56;76456.16;;;-3.47;44.08
13954;BME280;7049;49.444;8.522;2022-08-21T22:17:08;76462.41;;;-3.47;43.94
13954;BME280;7049;49.444;8.522;2022-08-21T22:22:15;76474.97;;;-3.47;44.21
13954;BME280;7049;49.444;8.522;2022-08-21T22:27:21;76483.34;;;-3.47;44.38
13954;BME280;7049;49.444;8.522;2022-08-21T22:32:27;76487.53;;;-3.47;44.62
13954;BME280;7049;49.444;8.522;2022-08-21T22:37:34;76497.97;;;-3.47;44.69
13954;BME280;7049;49.444;8.522;2022-08-21T22:42:37;76508.44;;;-3.47;44.72
13954;BME280;7049;49.444;8.522;2022-08-21T22:47:40;76516.81;;;-3.47;44.88
13954;BME280;7049;49.444;8.522;2022-08-21T22:52:46;76537.72;;;-3.47;45.48
13954;BME280;7049;49.444;8.522;2022-08-21T22:58:02;76552.34;;;-3.47;46.51
13954;BME280;7049;49.444;8.522;2022-08-21T23:03:04;76554.44;;;-3.47;45.55
13954;BME280;7049;49.444;8.522;2022-08-21T23:08:17;76562.81;;;-3.47;45.20
13954;BME280;7049;49.444;8.522;2022-08-21T23:13:22;76562.81;;;-3.47;44.96
13954;BME280;7049;49.444;8.522;2022-08-21T23:18:30;76567.00;;;-3.47;45.10
13954;BME280;7049;49.444;8.522;2022-08-21T23:23:41;76579.56;;;-3.47;45.85
13954;BME280;7049;49.444;8.522;2022-08-21T23:28:56;76583.72;;;-3.47;46.17
13954;BME280;7049;49.444;8.522;2022-08-21T23:34:11;76590.00;;;-3.47;45.95
13954;BME280;7049;49.444;8.522;2022-08-21T23:39:23;76598.38;;;-3.47;45.69
13954;BME280;7049;49.444;8.522;2022-08-21T23:44:41;76606.75;;;-3.47;45.64
13954;BME280;7049;49.444;8.522;2022-08-21T23:49:56;76608.84;;;-3.47;45.83
13954;BME280;7049;49.444;8.522;2022-08-21T23:55:22;76619.28;;;-3.47;46.61
